sensor_id;sensor_type;location;lat;lon;timestamp;pressure;altitude;pressure_sealevel;temperature;humidity
77321;BME280;66382;52.252;8.780;2023-07-30T00:02:18;99862.47;;;18.54;67.91
77321;BME280;66382;52.252;8.780;2023-07-30T00:04:45;99864.38;;;18.53;68.17
77321;BME280;66382;52.252;8.780;2023-07-30T00:07:13;99864.09;;;18.50;67.50
77321;BME280;66382;52.252;8.780;2023-07-30T00:09:39;99863.78;;;18.46;67.50
77321;BME280;66382;52.252;8.780;2023-07-30T00:12:06;99876.78;;;18.44;67.77
77321;BME280;66382;52.252;8.780;2023-07-30T00:14:32;99875.38;;;18.41;67.52
77321;BME280;66382;52.252;8.780;2023-07-30T00:16:57;99874.81;;;18.39;67.40
77321;BME280;66382;52.252;8.780;2023-07-30T00:19:23;99865.81;;;18.34;67.40
77321;BME280;66382;52.252;8.780;2023-07-30T00:21:49;99870.66;;;18.32;67.51
77321;BME280;66382;52.252;8.780;2023-07-30T00:24:16;99873.91;;;18.29;67.47
77321;BME280;66382;52.252;8.780;2023-07-30T00:26:42;99890.19;;;18.29;67.76
77321;BME280;66382;52.252;8.780;2023-07-30T00:29:07;99886.91;;;18.26;67.55
77321;BME280;66382;52.252;8.780;2023-07-30T00:31:33;99892.59;;;18.25;68.10
77321;BME280;66382;52.252;8.780;2023-07-30T00:33:59;99892.03;;;18.23;68.13
77321;BME280;66382;52.252;8.780;2023-07-30T00:36:24;99890.66;;;18.20;68.03
77321;BME280;66382;52.252;8.780;2023-07-30T00:38:50;99888.16;;;18.19;68.32
77321;BME280;66382;52.252;8.780;2023-07-30T00:41:17;99889.75;;;18.15;68.17
77321;BME280;66382;52.252;8.780;2023-07-30T00:43:43;99890.59;;;18.15;68.29
77321;BME280;66382;52.252;8.780;2023-07-30T00:46:08;99896.25;;;18.14;68.15
77321;BME280;66382;52.252;8.780;2023-07-30T00:48:34;99901.09;;;18.12;68.22
77321;BME280;66382;52.252;8.780;2023-07-30T00:51:00;99901.38;;;18.10;68.35
77321;BME280;66382;52.252;8.780;2023-07-30T00:53:26;99902.72;;;18.08;68.34
77321;BME280;66382;52.252;8.780;2023-07-30T00:55:53;99901.56;;;18.03;68.88
77321;BME280;66382;52.252;8.780;2023-07-30T00:58:21;99898.03;;;18.03;68.15
77321;BME280;66382;52.252;8.780;2023-07-30T01:00:48;99901.22;;;18.00;68.39
77321;BME280;66382;52.252;8.780;2023-07-30T01:03:14;99902.56;;;17.97;68.11
77321;BME280;66382;52.252;8.780;2023-07-30T01:05:39;99906.03;;;17.93;68.25
77321;BME280;66382;52.252;8.780;2023-07-30T01:08:05;99902.75;;;17.91;68.12
77321;BME280;66382;52.252;8.780;2023-07-30T01:10:32;99903.75;;;17.84;68.08
77321;BME280;66382;52.252;8.780;2023-07-30T01:12:59;99905.53;;;17.79;68.27
77321;BME280;66382;52.252;8.780;2023-07-30T01:15:28;99908.19;;;17.74;67.97
77321;BME280;66382;52.252;8.780;2023-07-30T01:17:54;99912.97;;;17.67;67.72
77321;BME280;66382;52.252;8.780;2023-07-30T01:20:20;99918.31;;;17.61;67.72
77321;BME280;66382;52.252;8.780;2023-07-30T01:22:47;99913.88;;;17.55;67.94
77321;BME280;66382;52.252;8.780;2023-07-30T01:25:13;99922.00;;;17.55;67.84
77321;BME280;66382;52.252;8.780;2023-07-30T01:27:42;99921.69;;;17.52;67.90
77321;BME280;66382;52.252;8.780;2023-07-30T01:30:18;99925.16;;;17.47;67.79
77321;BME280;66382;52.252;8.780;2023-07-30T01:32:48;99930.00;;;17.45;68.45
77321;BME280;66382;52.252;8.780;2023-07-30T01:35:15;99926.47;;;17.45;68.58
77321;BME280;66382;52.252;8.780;2023-07-30T01:37:42;99924.00;;;17.43;68.41
77321;BME280;66382;52.252;8.780;2023-07-30T01:40:12;99932.13;;;17.43;68.06
77321;BME280;66382;52.252;8.780;2023-07-30T01:42:38;99928.88;;;17.41;68.12
77321;BME280;66382;52.252;8.780;2023-07-30T01:45:05;99933.13;;;17.37;68.32
77321;BME280;66382;52.252;8.780;2023-07-30T01:47:32;99930.91;;;17.34;68.51
77321;BME280;66382;52.252;8.780;2023-07-30T01:49:58;99938.47;;;17.32;68.48
77321;BME280;66382;52.252;8.780;2023-07-30T01:52:23;99936.00;;;17.30;68.17
77321;BME280;66382;52.252;8.780;2023-07-30T01:54:49;99929.75;;;17.30;68.66
77321;BME280;66382;52.252;8.780;2023-07-30T01:57:16;99928.38;;;17.27;69.03
77321;BME280;66382;52.252;8.780;2023-07-30T01:59:42;99932.72;;;17.28;68.96
77321;BME280;66382;52.252;8.780;2023-07-30T02:02:07;99932.72;;;17.28;69.05
77321;BME280;66382;52.252;8.780;2023-07-30T02:04:33;99940.38;;;17.31;69.31
77321;BME280;66382;52.252;8.780;2023-07-30T02:06:59;99942.22;;;17.31;69.09
77321;BME280;66382;52.252;8.780;2023-07-30T02:09:25;99940.38;;;17.31;68.86
77321;BME280;66382;52.252;8.780;2023-07-30T02:11:50;99942.22;;;17.31;68.72
77321;BME280;66382;52.252;8.780;2023-07-30T02:14:18;99943.06;;;17.31;68.65
77321;BME280;66382;52.252;8.780;2023-07-30T02:16:44;99946.03;;;17.30;68.82
77321;BME280;66382;52.252;8.780;2023-07-30T02:19:09;99946.53;;;17.27;68.83
77321;BME280;66382;52.252;8.780;2023-07-30T02:21:35;99946.53;;;17.27;68.86
77321;BME280;66382;52.252;8.780;2023-07-30T02:24:01;99941.91;;;17.27;69.11
77321;BME280;66382;52.252;8.780;2023-07-30T02:26:27;99945.72;;;17.26;68.83
77321;BME280;66382;52.252;8.780;2023-07-30T02:28:52;99935.91;;;17.25;68.47
77321;BME280;66382;52.252;8.780;2023-07-30T02:31:19;99938.31;;;17.22;68.76
77321;BME280;66382;52.252;8.780;2023-07-30T02:33:45;99935.84;;;17.20;68.94
77321;BME280;66382;52.252;8.780;2023-07-30T02:36:11;99932.53;;;17.18;68.67
77321;BME280;66382;52.252;8.780;2023-07-30T02:38:36;99934.69;;;17.16;69.39
77321;BME280;66382;52.252;8.780;2023-07-30T02:41:02;99935.53;;;17.16;68.98
77321;BME280;66382;52.252;8.780;2023-07-30T02:43:28;99941.75;;;17.17;69.13
77321;BME280;66382;52.252;8.780;2023-07-30T02:45:53;99939.28;;;17.15;69.11
77321;BME280;66382;52.252;8.780;2023-07-30T02:48:21;99934.94;;;17.14;69.46
77321;BME280;66382;52.252;8.780;2023-07-30T02:50:46;99936.84;;;17.14;69.59
77321;BME280;66382;52.252;8.780;2023-07-30T02:53:12;99934.94;;;17.14;69.47
77321;BME280;66382;52.252;8.780;2023-07-30T02:55:38;99930.56;;;17.13;69.44
77321;BME280;66382;52.252;8.780;2023-07-30T02:58:03;99937.66;;;17.14;69.25
77321;BME280;66382;52.252;8.780;2023-07-30T03:00:29;99939.53;;;17.14;69.26
77321;BME280;66382;52.252;8.780;2023-07-30T03:02:55;99947.91;;;17.12;69.41
77321;BME280;66382;52.252;8.780;2023-07-30T03:05:23;99940.84;;;17.11;69.59
77321;BME280;66382;52.252;8.780;2023-07-30T03:07:48;99951.91;;;17.10;69.48
77321;BME280;66382;52.252;8.780;2023-07-30T03:10:14;99938.63;;;17.08;69.34
77321;BME280;66382;52.252;8.780;2023-07-30T03:12:40;99943.47;;;17.06;69.24
77321;BME280;66382;52.252;8.780;2023-07-30T03:15:06;99945.34;;;17.06;69.63
77321;BME280;66382;52.252;8.780;2023-07-30T03:17:32;99937.41;;;16.99;69.89
77321;BME280;66382;52.252;8.780;2023-07-30T03:19:57;99947.25;;;17.05;69.77
77321;BME280;66382;52.252;8.780;2023-07-30T03:22:24;99946.06;;;17.01;68.69
77321;BME280;66382;52.252;8.780;2023-07-30T03:24:50;99955.78;;;16.97;69.13
77321;BME280;66382;52.252;8.780;2023-07-30T03:27:16;99952.72;;;16.93;69.43
77321;BME280;66382;52.252;8.780;2023-07-30T03:29:41;99952.97;;;16.92;69.39
77321;BME280;66382;52.252;8.780;2023-07-30T03:32:07;99951.56;;;16.89;69.74
77321;BME280;66382;52.252;8.780;2023-07-30T03:34:33;99952.41;;;16.90;69.60
77321;BME280;66382;52.252;8.780;2023-07-30T03:36:59;99952.41;;;16.90;69.68
77321;BME280;66382;52.252;8.780;2023-07-30T03:39:26;99943.38;;;16.84;69.66
77321;BME280;66382;52.252;8.780;2023-07-30T03:41:52;99954.53;;;16.88;69.63
77321;BME280;66382;52.252;8.780;2023-07-30T03:44:17;99959.13;;;16.87;69.98
77321;BME280;66382;52.252;8.780;2023-07-30T03:46:43;99957.22;;;16.88;69.86
77321;BME280;66382;52.252;8.780;2023-07-30T03:49:09;99961.81;;;16.87;70.03
77321;BME280;66382;52.252;8.780;2023-07-30T03:51:35;99962.88;;;16.86;69.28
77321;BME280;66382;52.252;8.780;2023-07-30T03:54:01;99959.03;;;16.82;68.90
77321;BME280;66382;52.252;8.780;2023-07-30T03:56:28;99959.72;;;16.77;68.89
77321;BME280;66382;52.252;8.780;2023-07-30T03:58:54;99960.22;;;16.74;69.03
77321;BME280;66382;52.252;8.780;2023-07-30T04:01:19;99957.06;;;16.66;68.49
77321;BME280;66382;52.252;8.780;2023-07-30T04:03:45;99969.91;;;16.59;68.85
77321;BME280;66382;52.252;8.780;2023-07-30T04:06:11;99961.47;;;16.55;68.67
77321;BME280;66382;52.252;8.780;2023-07-30T04:08:36;99966.06;;;16.54;69.20
77321;BME280;66382;52.252;8.780;2023-07-30T04:11:02;99970.31;;;16.50;69.34
77321;BME280;66382;52.252;8.780;2023-07-30T04:13:29;99975.38;;;16.47;69.76
77321;BME280;66382;52.252;8.780;2023-07-30T04:15:55;99969.97;;;16.47;69.48
77321;BME280;66382;52.252;8.780;2023-07-30T04:18:20;99962.91;;;16.46;69.40
77321;BME280;66382;52.252;8.780;2023-07-30T04:20:46;99971.00;;;16.46;69.66
77321;BME280;66382;52.252;8.780;2023-07-30T04:23:12;99969.97;;;16.47;69.50
77321;BME280;66382;52.252;8.780;2023-07-30T04:25:37;99976.19;;;16.47;69.22
77321;BME280;66382;52.252;8.780;2023-07-30T04:28:03;99968.91;;;16.48;70.17
77321;BME280;66382;52.252;8.780;2023-07-30T04:30:30;99963.25;;;16.49;69.95
77321;BME280;66382;52.252;8.780;2023-07-30T04:32:56;99971.13;;;16.51;69.63
77321;BME280;66382;52.252;8.780;2023-07-30T04:35:22;99969.22;;;16.51;69.92
77321;BME280;66382;52.252;8.780;2023-07-30T04:37:47;99976.41;;;16.58;70.31
77321;BME280;66382;52.252;8.780;2023-07-30T04:40:13;99974.38;;;16.65;70.54
77321;BME280;66382;52.252;8.780;2023-07-30T04:42:39;99975.59;;;16.74;70.58
77321;BME280;66382;52.252;8.780;2023-07-30T04:45:05;99980.78;;;16.87;70.30
77321;BME280;66382;52.252;8.780;2023-07-30T04:47:32;99977.53;;;17.02;70.68
77321;BME280;66382;52.252;8.780;2023-07-30T04:49:58;99975.97;;;17.23;71.09
77321;BME280;66382;52.252;8.780;2023-07-30T04:52:24;99968.75;;;17.46;70.29
77321;BME280;66382;52.252;8.780;2023-07-30T04:54:49;99976.78;;;17.57;69.48
77321;BME280;66382;52.252;8.780;2023-07-30T04:57:15;99974.09;;;17.57;69.29
77321;BME280;66382;52.252;8.780;2023-07-30T04:59:41;99964.84;;;17.53;68.84
77321;BME280;66382;52.252;8.780;2023-07-30T05:02:06;99968.84;;;17.51;68.85
77321;BME280;66382;52.252;8.780;2023-07-30T05:04:34;99975.59;;;17.48;69.05
77321;BME280;66382;52.252;8.780;2023-07-30T05:06:59;99975.00;;;17.46;68.92
77321;BME280;66382;52.252;8.780;2023-07-30T05:09:25;99975.47;;;17.43;68.41
77321;BME280;66382;52.252;8.780;2023-07-30T05:11:51;99973.28;;;17.40;68.47
77321;BME280;66382;52.252;8.780;2023-07-30T05:14:16;99977.38;;;17.42;69.00
77321;BME280;66382;52.252;8.780;2023-07-30T05:16:42;99971.97;;;17.42;68.76
77321;BME280;66382;52.252;8.780;2023-07-30T05:19:07;99972.78;;;17.43;69.01
77321;BME280;66382;52.252;8.780;2023-07-30T05:21:35;99984.78;;;17.47;68.88
77321;BME280;66382;52.252;8.780;2023-07-30T05:24:00;99972.63;;;17.50;68.94
77321;BME280;66382;52.252;8.780;2023-07-30T05:26:26;99973.44;;;17.50;68.37
77321;BME280;66382;52.252;8.780;2023-07-30T05:28:52;99969.66;;;17.51;68.50
77321;BME280;66382;52.252;8.780;2023-07-30T05:31:17;99968.59;;;17.52;68.03
77321;BME280;66382;52.252;8.780;2023-07-30T05:33:43;99974.00;;;17.52;68.59
77321;BME280;66382;52.252;8.780;2023-07-30T05:36:09;99970.25;;;17.53;68.40
77321;BME280;66382;52.252;8.780;2023-07-30T05:38:36;99969.41;;;17.53;68.07
77321;BME280;66382;52.252;8.780;2023-07-30T05:41:01;99967.78;;;17.52;68.04
77321;BME280;66382;52.252;8.780;2023-07-30T05:43:27;99975.31;;;17.50;67.84
77321;BME280;66382;52.252;8.780;2023-07-30T05:45:53;99977.22;;;17.49;68.52
77321;BME280;66382;52.252;8.780;2023-07-30T05:48:18;99975.09;;;17.51;67.98
77321;BME280;66382;52.252;8.780;2023-07-30T05:50:44;99984.28;;;17.50;67.91
77321;BME280;66382;52.252;8.780;2023-07-30T05:53:10;99977.72;;;17.46;67.57
77321;BME280;66382;52.252;8.780;2023-07-30T05:55:37;99976.34;;;17.44;67.75
77321;BME280;66382;52.252;8.780;2023-07-30T05:58:03;99979.03;;;17.44;67.72
77321;BME280;66382;52.252;8.780;2023-07-30T06:00:28;99982.88;;;17.48;68.18
77321;BME280;66382;52.252;8.780;2023-07-30T06:02:54;99985.94;;;17.51;68.08
77321;BME280;66382;52.252;8.780;2023-07-30T06:05:20;99980.00;;;17.54;68.35
77321;BME280;66382;52.252;8.780;2023-07-30T06:07:45;99978.94;;;17.55;67.75
77321;BME280;66382;52.252;8.780;2023-07-30T06:10:11;99986.91;;;17.62;67.84
77321;BME280;66382;52.252;8.780;2023-07-30T06:12:38;99986.75;;;17.69;68.03
77321;BME280;66382;52.252;8.780;2023-07-30T06:15:06;99986.31;;;17.77;68.00
77321;BME280;66382;52.252;8.780;2023-07-30T06:17:32;99994.88;;;17.86;67.69
77321;BME280;66382;52.252;8.780;2023-07-30T06:19:57;99994.13;;;17.90;67.71
77321;BME280;66382;52.252;8.780;2023-07-30T06:22:23;99997.41;;;17.92;67.61
77321;BME280;66382;52.252;8.780;2023-07-30T06:24:49;100004.72;;;17.92;67.12
77321;BME280;66382;52.252;8.780;2023-07-30T06:27:14;100011.47;;;17.89;67.62
77321;BME280;66382;52.252;8.780;2023-07-30T06:29:41;100009.84;;;17.88;67.58
77321;BME280;66382;52.252;8.780;2023-07-30T06:32:07;100007.38;;;17.87;67.41
77321;BME280;66382;52.252;8.780;2023-07-30T06:34:33;100008.91;;;17.82;67.09
77321;BME280;66382;52.252;8.780;2023-07-30T06:36:59;100003.41;;;17.77;67.37
77321;BME280;66382;52.252;8.780;2023-07-30T06:39:24;100005.88;;;17.79;67.77
77321;BME280;66382;52.252;8.780;2023-07-30T06:41:50;100007.88;;;17.83;67.47
77321;BME280;66382;52.252;8.780;2023-07-30T06:44:16;99997.03;;;17.83;67.76
77321;BME280;66382;52.252;8.780;2023-07-30T06:46:43;100011.22;;;17.91;67.43
77321;BME280;66382;52.252;8.780;2023-07-30T06:49:08;100017.22;;;17.93;67.64
77321;BME280;66382;52.252;8.780;2023-07-30T06:51:34;100010.72;;;17.94;67.41
77321;BME280;66382;52.252;8.780;2023-07-30T06:54:00;100022.66;;;17.93;67.69
77321;BME280;66382;52.252;8.780;2023-07-30T06:56:25;100024.28;;;17.94;67.26
77321;BME280;66382;52.252;8.780;2023-07-30T06:58:51;100014.25;;;17.94;67.24
77321;BME280;66382;52.252;8.780;2023-07-30T07:01:17;100021.34;;;17.95;67.61
77321;BME280;66382;52.252;8.780;2023-07-30T07:03:44;100029.03;;;18.03;67.61
77321;BME280;66382;52.252;8.780;2023-07-30T07:06:10;100023.69;;;18.09;67.85
77321;BME280;66382;52.252;8.780;2023-07-30T07:08:35;100022.66;;;18.15;67.40
77321;BME280;66382;52.252;8.780;2023-07-30T07:11:01;100023.59;;;18.20;68.00
77321;BME280;66382;52.252;8.780;2023-07-30T07:13:27;100013.09;;;18.29;67.82
77321;BME280;66382;52.252;8.780;2023-07-30T07:15:52;100011.66;;;18.43;67.62
77321;BME280;66382;52.252;8.780;2023-07-30T07:18:18;100019.69;;;18.55;67.28
77321;BME280;66382;52.252;8.780;2023-07-30T07:20:45;100028.47;;;18.62;67.45
77321;BME280;66382;52.252;8.780;2023-07-30T07:23:11;100015.25;;;18.71;67.13
77321;BME280;66382;52.252;8.780;2023-07-30T07:25:36;100018.63;;;18.78;67.16
77321;BME280;66382;52.252;8.780;2023-07-30T07:28:02;100022.78;;;18.86;66.65
77321;BME280;66382;52.252;8.780;2023-07-30T07:30:28;100030.16;;;18.90;66.89
77321;BME280;66382;52.252;8.780;2023-07-30T07:32:53;100033.13;;;18.89;66.84
77321;BME280;66382;52.252;8.780;2023-07-30T07:35:19;100028.78;;;18.88;66.82
77321;BME280;66382;52.252;8.780;2023-07-30T07:37:46;100035.34;;;18.92;66.92
77321;BME280;66382;52.252;8.780;2023-07-30T07:40:13;100033.97;;;18.89;66.51
77321;BME280;66382;52.252;8.780;2023-07-30T07:42:38;100049.63;;;18.82;66.10
77321;BME280;66382;52.252;8.780;2023-07-30T07:45:05;100052.75;;;18.74;66.51
77321;BME280;66382;52.252;8.780;2023-07-30T07:47:31;100046.63;;;18.62;65.94
77321;BME280;66382;52.252;8.780;2023-07-30T07:49:57;100047.66;;;18.56;66.55
77321;BME280;66382;52.252;8.780;2023-07-30T07:52:23;100045.97;;;18.50;66.20
77321;BME280;66382;52.252;8.780;2023-07-30T07:54:50;100051.88;;;18.46;66.29
77321;BME280;66382;52.252;8.780;2023-07-30T07:57:15;100051.00;;;18.41;66.52
77321;BME280;66382;52.252;8.780;2023-07-30T07:59:41;100054.78;;;18.40;66.60
77321;BME280;66382;52.252;8.780;2023-07-30T08:02:07;100056.34;;;18.36;66.41
77321;BME280;66382;52.252;8.780;2023-07-30T08:04:33;100050.59;;;18.32;66.52
77321;BME280;66382;52.252;8.780;2023-07-30T08:06:58;100043.53;;;18.31;66.50
77321;BME280;66382;52.252;8.780;2023-07-30T08:09:24;100052.75;;;18.30;66.16
77321;BME280;66382;52.252;8.780;2023-07-30T08:11:51;100047.56;;;18.29;66.65
77321;BME280;66382;52.252;8.780;2023-07-30T08:14:17;100044.84;;;18.29;66.11
77321;BME280;66382;52.252;8.780;2023-07-30T08:16:43;100045.94;;;18.27;66.53
77321;BME280;66382;52.252;8.780;2023-07-30T08:19:08;100044.84;;;18.29;66.67
77321;BME280;66382;52.252;8.780;2023-07-30T08:21:34;100046.00;;;18.33;66.60
77321;BME280;66382;52.252;8.780;2023-07-30T08:24:00;100047.06;;;18.32;66.44
77321;BME280;66382;52.252;8.780;2023-07-30T08:26:25;100048.72;;;18.33;66.44
77321;BME280;66382;52.252;8.780;2023-07-30T08:28:52;100056.53;;;18.29;66.51
77321;BME280;66382;52.252;8.780;2023-07-30T08:31:18;100051.84;;;18.24;66.70
77321;BME280;66382;52.252;8.780;2023-07-30T08:33:44;100042.88;;;18.24;66.24
77321;BME280;66382;52.252;8.780;2023-07-30T08:36:09;100048.59;;;18.22;66.56
77321;BME280;66382;52.252;8.780;2023-07-30T08:38:35;100054.81;;;18.23;66.60
77321;BME280;66382;52.252;8.780;2023-07-30T08:41:01;100050.72;;;18.20;66.52
77321;BME280;66382;52.252;8.780;2023-07-30T08:43:27;100044.97;;;18.17;66.82
77321;BME280;66382;52.252;8.780;2023-07-30T08:45:54;100054.75;;;18.18;66.47
77321;BME280;66382;52.252;8.780;2023-07-30T08:48:19;100052.28;;;18.16;66.70
77321;BME280;66382;52.252;8.780;2023-07-30T08:50:45;100054.19;;;18.16;67.09
77321;BME280;66382;52.252;8.780;2023-07-30T08:53:12;100052.28;;;18.16;67.45
77321;BME280;66382;52.252;8.780;2023-07-30T08:55:40;100058.28;;;18.18;67.15
77321;BME280;66382;52.252;8.780;2023-07-30T08:58:06;100059.34;;;18.17;66.96
77321;BME280;66382;52.252;8.780;2023-07-30T09:00:34;100054.41;;;18.14;66.88
77321;BME280;66382;52.252;8.780;2023-07-30T09:03:04;100065.25;;;18.14;67.26
77321;BME280;66382;52.252;8.780;2023-07-30T09:05:30;100059.84;;;18.14;67.01
77321;BME280;66382;52.252;8.780;2023-07-30T09:07:57;100071.78;;;18.13;67.25
77321;BME280;66382;52.252;8.780;2023-07-30T09:10:23;100078.84;;;18.14;67.05
77321;BME280;66382;52.252;8.780;2023-07-30T09:12:52;100076.63;;;18.11;66.89
77321;BME280;66382;52.252;8.780;2023-07-30T09:15:18;100079.56;;;18.10;66.90
77321;BME280;66382;52.252;8.780;2023-07-30T09:17:45;100071.44;;;18.10;67.40
77321;BME280;66382;52.252;8.780;2023-07-30T09:20:12;100068.47;;;18.11;67.36
77321;BME280;66382;52.252;8.780;2023-07-30T09:22:38;100075.88;;;18.16;67.21
77321;BME280;66382;52.252;8.780;2023-07-30T09:25:04;100080.81;;;18.19;67.03
77321;BME280;66382;52.252;8.780;2023-07-30T09:27:31;100085.16;;;18.20;66.83
77321;BME280;66382;52.252;8.780;2023-07-30T09:29:58;100086.38;;;18.12;66.83
77321;BME280;66382;52.252;8.780;2023-07-30T09:32:25;100090.94;;;18.07;66.95
77321;BME280;66382;52.252;8.780;2023-07-30T09:34:52;100080.59;;;18.03;67.32
77321;BME280;66382;52.252;8.780;2023-07-30T09:37:19;100090.34;;;18.04;67.89
77321;BME280;66382;52.252;8.780;2023-07-30T09:39:47;100101.28;;;18.10;67.25
77321;BME280;66382;52.252;8.780;2023-07-30T09:42:14;100102.94;;;18.11;68.01
77321;BME280;66382;52.252;8.780;2023-07-30T09:44:40;100101.13;;;18.16;67.60
77321;BME280;66382;52.252;8.780;2023-07-30T09:47:09;100099.22;;;18.17;67.48
77321;BME280;66382;52.252;8.780;2023-07-30T09:49:35;100116.66;;;18.21;67.59
77321;BME280;66382;52.252;8.780;2023-07-30T09:52:02;100122.59;;;18.18;67.08
77321;BME280;66382;52.252;8.780;2023-07-30T09:54:31;100126.84;;;18.14;67.25
77321;BME280;66382;52.252;8.780;2023-07-30T09:56:57;100126.78;;;18.09;67.21
77321;BME280;66382;52.252;8.780;2023-07-30T09:59:23;100122.31;;;18.02;66.98
77321;BME280;66382;52.252;8.780;2023-07-30T10:01:49;100134.75;;;17.98;67.32
77321;BME280;66382;52.252;8.780;2023-07-30T10:04:18;100125.81;;;17.98;67.28
77321;BME280;66382;52.252;8.780;2023-07-30T10:06:47;100124.56;;;18.05;67.45
77321;BME280;66382;52.252;8.780;2023-07-30T10:09:17;100125.84;;;18.20;67.75
77321;BME280;66382;52.252;8.780;2023-07-30T10:11:48;100130.00;;;18.44;67.99
77321;BME280;66382;52.252;8.780;2023-07-30T10:14:15;100113.50;;;18.68;68.02
77321;BME280;66382;52.252;8.780;2023-07-30T10:16:50;100112.97;;;18.88;67.93
77321;BME280;66382;52.252;8.780;2023-07-30T10:19:16;100114.31;;;19.34;68.94
77321;BME280;66382;52.252;8.780;2023-07-30T10:21:42;100111.28;;;19.58;67.55
77321;BME280;66382;52.252;8.780;2023-07-30T10:24:08;100112.94;;;19.59;66.54
77321;BME280;66382;52.252;8.780;2023-07-30T10:26:34;100110.34;;;19.69;66.89
77321;BME280;66382;52.252;8.780;2023-07-30T10:29:12;100103.97;;;19.86;67.27
77321;BME280;66382;52.252;8.780;2023-07-30T10:31:38;100101.28;;;19.91;65.94
77321;BME280;66382;52.252;8.780;2023-07-30T10:34:07;100108.09;;;19.93;66.23
77321;BME280;66382;52.252;8.780;2023-07-30T10:36:40;100103.16;;;19.90;66.31
77321;BME280;66382;52.252;8.780;2023-07-30T10:39:14;100106.94;;;19.84;66.43
77321;BME280;66382;52.252;8.780;2023-07-30T10:41:40;100106.06;;;19.79;65.47
77321;BME280;66382;52.252;8.780;2023-07-30T10:44:06;100110.66;;;19.78;65.67
77321;BME280;66382;52.252;8.780;2023-07-30T10:46:33;100105.47;;;19.71;65.52
77321;BME280;66382;52.252;8.780;2023-07-30T10:48:59;100106.28;;;19.72;65.79
77321;BME280;66382;52.252;8.780;2023-07-30T10:51:24;100113.09;;;19.74;65.71
77321;BME280;66382;52.252;8.780;2023-07-30T10:53:50;100101.44;;;19.79;66.35
77321;BME280;66382;52.252;8.780;2023-07-30T10:56:18;100107.78;;;19.90;66.04
77321;BME280;66382;52.252;8.780;2023-07-30T10:58:49;100095.72;;;20.13;66.25
77321;BME280;66382;52.252;8.780;2023-07-30T11:01:16;100091.22;;;20.34;66.02
77321;BME280;66382;52.252;8.780;2023-07-30T11:03:43;100086.16;;;20.53;65.90
77321;BME280;66382;52.252;8.780;2023-07-30T11:06:09;100087.59;;;20.66;66.35
77321;BME280;66382;52.252;8.780;2023-07-30T11:08:36;100087.06;;;20.69;65.78
77321;BME280;66382;52.252;8.780;2023-07-30T11:11:02;100098.50;;;20.66;65.21
77321;BME280;66382;52.252;8.780;2023-07-30T11:13:28;100092.78;;;20.67;64.20
77321;BME280;66382;52.252;8.780;2023-07-30T11:15:54;100098.78;;;20.69;65.09
77321;BME280;66382;52.252;8.780;2023-07-30T11:18:20;100096.59;;;20.66;63.87
77321;BME280;66382;52.252;8.780;2023-07-30T11:20:47;100101.22;;;20.66;64.05
77321;BME280;66382;52.252;8.780;2023-07-30T11:23:20;100094.66;;;20.61;64.52
77321;BME280;66382;52.252;8.780;2023-07-30T11:25:47;100085.94;;;20.59;63.95
77321;BME280;66382;52.252;8.780;2023-07-30T11:28:13;100100.66;;;20.58;63.79
77321;BME280;66382;52.252;8.780;2023-07-30T11:30:38;100093.22;;;20.54;63.54
77321;BME280;66382;52.252;8.780;2023-07-30T11:33:04;100090.88;;;20.63;64.16
77321;BME280;66382;52.252;8.780;2023-07-30T11:35:30;100090.34;;;20.71;64.26
77321;BME280;66382;52.252;8.780;2023-07-30T11:37:58;100087.91;;;20.74;63.78
77321;BME280;66382;52.252;8.780;2023-07-30T11:40:23;100083.28;;;20.70;64.48
77321;BME280;66382;52.252;8.780;2023-07-30T11:42:49;100083.50;;;20.58;62.90
77321;BME280;66382;52.252;8.780;2023-07-30T11:45:19;100083.44;;;20.53;63.59
77321;BME280;66382;52.252;8.780;2023-07-30T11:47:45;100077.25;;;20.63;64.80
77321;BME280;66382;52.252;8.780;2023-07-30T11:50:11;100067.19;;;20.68;64.26
77321;BME280;66382;52.252;8.780;2023-07-30T11:52:51;100060.41;;;20.76;64.65
77321;BME280;66382;52.252;8.780;2023-07-30T11:55:18;100070.25;;;20.87;62.17
77321;BME280;66382;52.252;8.780;2023-07-30T11:57:43;100058.28;;;20.93;64.31
77321;BME280;66382;52.252;8.780;2023-07-30T12:00:10;100065.91;;;20.96;63.71
77321;BME280;66382;52.252;8.780;2023-07-30T12:02:36;100067.59;;;21.02;63.03
77321;BME280;66382;52.252;8.780;2023-07-30T12:05:03;100059.69;;;21.11;62.40
77321;BME280;66382;52.252;8.780;2023-07-30T12:07:29;100058.63;;;21.17;62.29
77321;BME280;66382;52.252;8.780;2023-07-30T12:09:55;100066.81;;;21.27;62.85
77321;BME280;66382;52.252;8.780;2023-07-30T12:12:24;100062.19;;;21.38;63.48
77321;BME280;66382;52.252;8.780;2023-07-30T12:14:53;100070.41;;;21.43;62.48
77321;BME280;66382;52.252;8.780;2023-07-30T12:17:19;100064.41;;;21.46;61.46
77321;BME280;66382;52.252;8.780;2023-07-30T12:19:45;100071.75;;;21.46;61.56
77321;BME280;66382;52.252;8.780;2023-07-30T12:22:11;100069.03;;;21.41;61.61
77321;BME280;66382;52.252;8.780;2023-07-30T12:24:37;100066.56;;;21.34;61.46
77321;BME280;66382;52.252;8.780;2023-07-30T12:27:03;100068.19;;;21.30;61.43
77321;BME280;66382;52.252;8.780;2023-07-30T12:29:30;100069.53;;;21.27;61.19
77321;BME280;66382;52.252;8.780;2023-07-30T12:31:56;100074.44;;;21.20;60.39
77321;BME280;66382;52.252;8.780;2023-07-30T12:34:23;100065.69;;;21.13;60.70
77321;BME280;66382;52.252;8.780;2023-07-30T12:36:49;100070.88;;;21.10;60.11
77321;BME280;66382;52.252;8.780;2023-07-30T12:39:14;100060.22;;;21.08;60.64
77321;BME280;66382;52.252;8.780;2023-07-30T12:41:40;100046.59;;;21.08;60.72
77321;BME280;66382;52.252;8.780;2023-07-30T12:44:06;100058.31;;;21.14;60.78
77321;BME280;66382;52.252;8.780;2023-07-30T12:46:33;100049.88;;;21.15;60.36
77321;BME280;66382;52.252;8.780;2023-07-30T12:48:59;100057.81;;;21.12;61.85
77321;BME280;66382;52.252;8.780;2023-07-30T12:51:25;100064.88;;;21.13;60.46